Filia Joy — 3FIN9 — position and weather

sailwx.info

Track history (hours):
 
Tides and Currents Weather Stations Pressure Air Temp Water Temp Dewpoint Dewpoint Depression Visibility Wind Speed Wind Dir Waves Ship Positions

Filia Joy

Last reported at 2016-May-17 16:32 UTC. Time now 2016-May-30 03:08 UTC.
Position N 35°49' E 029°57'.
Warning: this ship's position is 12 days out of date.

Length 190 m; draft 11.7 m.

Type: Cargo ship. MMSI: 371999000.

Date/timePositionNaut miles runAvg speedWind from/ knotsBaromVisibWave heightAir tempDewpointWater temp
2016-May-17 16:32N 35°49' E 029°57'1313.1
2016-May-17 15:33N 35°49' E 029°41'1613.1
2016-May-17 14:21N 35°49' E 029°22'  
2016-May-15 08:13N 36°29' E 014°44'913.3
2016-May-15 07:33N 36°30' E 014°33'1413.7
2016-May-15 06:30N 36°35' E 014°16'1313.7
2016-May-15 05:33N 36°39' E 014°01'1613.8
2016-May-15 04:23N 36°44' E 013°41'  
2016-May-12 07:08N 35°60' W 005°09'1016.5
2016-May-12 06:33N 35°59' W 005°21'  
2016-May-08 15:33N 49°28' W 004°17'2713.4
2016-May-08 13:30N 49°42' W 003°40'1414.5
2016-May-08 12:33N 49°49' W 003°22'1413.9
2016-May-08 11:33N 49°56' W 003°03'1212.5
2016-May-08 10:33N 50°00' W 002°45'5510.4
2016-May-08 05:16N 50°15' W 001°23'1115.0
2016-May-08 04:33N 50°18' W 001°07'1616.0
2016-May-08 03:33N 50°22' W 000°43'1515.5
2016-May-08 02:33N 50°27' W 000°19'1414.4
2016-May-08 01:34N 50°30' E 000°03'1413.6
2016-May-08 00:33N 50°34' E 000°23'1212.3
2016-May-07 23:33N 50°38' E 000°42'1411.5
2016-May-07 22:21N 50°46' E 000°59'911.9
2016-May-07 21:33N 50°52' E 001°11'1414.4
2016-May-07 20:34N 51°02' E 001°28'1616.3
2016-May-07 19:33N 51°13' E 001°46'1414.3
2016-May-07 18:34N 51°24' E 002°00'1312.8
2016-May-07 17:33N 51°21' E 002°20'1312.7
2016-May-07 16:33N 51°23' E 002°40'  
Track history (hours):
 
Tides and Currents Weather Stations Pressure Air Temp Water Temp Dewpoint Dewpoint Depression Visibility Wind Speed Wind Dir Waves Ship Positions

Filia Joy

Last reported at 2016-May-17 16:32 UTC. Time now 2016-May-30 03:08 UTC.
Position N 35°49' E 029°57'.
Warning: this ship's position is 12 days out of date.

Length 190 m; draft 11.7 m.

Type: Cargo ship. MMSI: 371999000.

Date/timePositionNaut miles runAvg speedWind from/ knotsBaromVisibWave heightAir tempDewpointWater temp
2016-May-17 16:32N 35°49' E 029°57'1313.1
2016-May-17 15:33N 35°49' E 029°41'1613.1
2016-May-17 14:21N 35°49' E 029°22'  
2016-May-15 08:13N 36°29' E 014°44'913.3
2016-May-15 07:33N 36°30' E 014°33'1413.7
2016-May-15 06:30N 36°35' E 014°16'1313.7
2016-May-15 05:33N 36°39' E 014°01'1613.8
2016-May-15 04:23N 36°44' E 013°41'  
2016-May-12 07:08N 35°60' W 005°09'1016.5
2016-May-12 06:33N 35°59' W 005°21'  
2016-May-08 15:33N 49°28' W 004°17'2713.4
2016-May-08 13:30N 49°42' W 003°40'1414.5
2016-May-08 12:33N 49°49' W 003°22'1413.9
2016-May-08 11:33N 49°56' W 003°03'1212.5
2016-May-08 10:33N 50°00' W 002°45'5510.4
2016-May-08 05:16N 50°15' W 001°23'1115.0
2016-May-08 04:33N 50°18' W 001°07'1616.0
2016-May-08 03:33N 50°22' W 000°43'1515.5
2016-May-08 02:33N 50°27' W 000°19'1414.4
2016-May-08 01:34N 50°30' E 000°03'1413.6
2016-May-08 00:33N 50°34' E 000°23'1212.3
2016-May-07 23:33N 50°38' E 000°42'1411.5
2016-May-07 22:21N 50°46' E 000°59'911.9
2016-May-07 21:33N 50°52' E 001°11'1414.4
2016-May-07 20:34N 51°02' E 001°28'1616.3
2016-May-07 19:33N 51°13' E 001°46'1414.3
2016-May-07 18:34N 51°24' E 002°00'1312.8
2016-May-07 17:33N 51°21' E 002°20'1312.7
2016-May-07 16:33N 51°23' E 002°40'  

Dump ship's entire track history